sensor_id;sensor_type;location;lat;lon;timestamp;P1;durP1;ratioP1;P2;durP2;ratioP2
28003;SDS011;15330;51.234;6.754;2024-03-23T00:53:39;23.30;;;7.03;;
28003;SDS011;15330;51.234;6.754;2024-03-23T00:56:04;16.77;;;5.97;;
28003;SDS011;15330;51.234;6.754;2024-03-23T00:58:30;23.15;;;6.25;;
28003;SDS011;15330;51.234;6.754;2024-03-23T01:00:55;21.45;;;5.93;;
28003;SDS011;15330;51.234;6.754;2024-03-23T01:03:21;17.38;;;5.78;;
28003;SDS011;15330;51.234;6.754;2024-03-23T01:05:46;20.73;;;5.50;;
28003;SDS011;15330;51.234;6.754;2024-03-23T01:08:11;16.48;;;5.55;;
28003;SDS011;15330;51.234;6.754;2024-03-23T01:10:37;15.57;;;4.63;;
28003;SDS011;15330;51.234;6.754;2024-03-23T01:13:02;20.02;;;5.22;;
28003;SDS011;15330;51.234;6.754;2024-03-23T01:15:28;21.33;;;5.53;;
28003;SDS011;15330;51.234;6.754;2024-03-23T01:17:53;18.48;;;5.13;;
28003;SDS011;15330;51.234;6.754;2024-03-23T01:20:19;27.27;;;5.72;;
28003;SDS011;15330;51.234;6.754;2024-03-23T01:22:44;19.27;;;5.22;;
28003;SDS011;15330;51.234;6.754;2024-03-23T01:25:10;18.13;;;5.80;;
28003;SDS011;15330;51.234;6.754;2024-03-23T01:27:35;23.48;;;6.50;;
28003;SDS011;15330;51.234;6.754;2024-03-23T01:30:00;13.95;;;4.47;;
28003;SDS011;15330;51.234;6.754;2024-03-23T01:32:26;21.00;;;4.43;;
28003;SDS011;15330;51.234;6.754;2024-03-23T01:34:51;10.32;;;2.78;;
28003;SDS011;15330;51.234;6.754;2024-03-23T01:37:16;12.23;;;2.75;;
28003;SDS011;15330;51.234;6.754;2024-03-23T01:39:42;13.55;;;2.45;;
28003;SDS011;15330;51.234;6.754;2024-03-23T01:42:07;11.13;;;2.58;;
28003;SDS011;15330;51.234;6.754;2024-03-23T01:44:33;14.82;;;2.53;;
28003;SDS011;15330;51.234;6.754;2024-03-23T01:46:58;10.20;;;2.55;;
28003;SDS011;15330;51.234;6.754;2024-03-23T01:49:24;9.43;;;2.67;;
28003;SDS011;15330;51.234;6.754;2024-03-23T01:51:49;9.65;;;2.20;;
28003;SDS011;15330;51.234;6.754;2024-03-23T01:54:15;7.25;;;2.17;;
28003;SDS011;15330;51.234;6.754;2024-03-23T01:56:41;6.15;;;2.30;;
28003;SDS011;15330;51.234;6.754;2024-03-23T01:59:06;11.05;;;3.08;;
28003;SDS011;15330;51.234;6.754;2024-03-23T02:01:33;7.10;;;2.50;;
28003;SDS011;15330;51.234;6.754;2024-03-23T02:04:01;10.02;;;2.45;;
28003;SDS011;15330;51.234;6.754;2024-03-23T02:06:27;11.52;;;2.47;;
28003;SDS011;15330;51.234;6.754;2024-03-23T02:08:53;11.25;;;2.20;;
28003;SDS011;15330;51.234;6.754;2024-03-23T02:11:19;10.63;;;2.38;;
28003;SDS011;15330;51.234;6.754;2024-03-23T02:13:44;9.88;;;2.25;;
28003;SDS011;15330;51.234;6.754;2024-03-23T02:16:10;8.27;;;2.20;;
28003;SDS011;15330;51.234;6.754;2024-03-23T02:18:36;10.35;;;2.55;;
28003;SDS011;15330;51.234;6.754;2024-03-23T02:21:02;12.00;;;2.95;;
28003;SDS011;15330;51.234;6.754;2024-03-23T02:23:28;11.25;;;2.60;;
28003;SDS011;15330;51.234;6.754;2024-03-23T02:25:53;8.23;;;2.22;;
28003;SDS011;15330;51.234;6.754;2024-03-23T02:28:19;15.25;;;3.50;;
28003;SDS011;15330;51.234;6.754;2024-03-23T02:30:45;13.73;;;2.63;;
28003;SDS011;15330;51.234;6.754;2024-03-23T02:33:11;12.05;;;2.92;;
28003;SDS011;15330;51.234;6.754;2024-03-23T02:35:36;6.88;;;2.50;;
28003;SDS011;15330;51.234;6.754;2024-03-23T02:38:02;12.45;;;2.67;;
28003;SDS011;15330;51.234;6.754;2024-03-23T02:40:27;10.05;;;2.30;;
28003;SDS011;15330;51.234;6.754;2024-03-23T02:42:53;10.52;;;2.47;;
28003;SDS011;15330;51.234;6.754;2024-03-23T02:45:19;9.82;;;2.58;;
28003;SDS011;15330;51.234;6.754;2024-03-23T02:47:44;10.73;;;2.55;;
28003;SDS011;15330;51.234;6.754;2024-03-23T02:50:10;11.40;;;2.17;;
28003;SDS011;15330;51.234;6.754;2024-03-23T02:52:36;9.57;;;2.33;;
28003;SDS011;15330;51.234;6.754;2024-03-23T02:55:02;8.13;;;2.08;;
28003;SDS011;15330;51.234;6.754;2024-03-23T02:57:28;9.45;;;2.25;;
28003;SDS011;15330;51.234;6.754;2024-03-23T02:59:53;14.10;;;2.30;;
28003;SDS011;15330;51.234;6.754;2024-03-23T03:02:20;9.77;;;2.20;;
28003;SDS011;15330;51.234;6.754;2024-03-23T03:04:46;9.40;;;2.72;;
28003;SDS011;15330;51.234;6.754;2024-03-23T03:07:11;14.70;;;2.90;;
28003;SDS011;15330;51.234;6.754;2024-03-23T03:09:37;10.05;;;1.90;;
28003;SDS011;15330;51.234;6.754;2024-03-23T03:12:04;14.70;;;2.70;;
28003;SDS011;15330;51.234;6.754;2024-03-23T03:14:30;11.63;;;2.15;;
28003;SDS011;15330;51.234;6.754;2024-03-23T03:16:56;8.57;;;2.30;;
28003;SDS011;15330;51.234;6.754;2024-03-23T03:19:21;11.95;;;2.45;;
28003;SDS011;15330;51.234;6.754;2024-03-23T03:21:47;15.70;;;2.90;;
28003;SDS011;15330;51.234;6.754;2024-03-23T03:24:13;9.15;;;2.60;;
28003;SDS011;15330;51.234;6.754;2024-03-23T03:26:38;12.82;;;2.80;;
28003;SDS011;15330;51.234;6.754;2024-03-23T03:29:03;10.55;;;2.38;;
28003;SDS011;15330;51.234;6.754;2024-03-23T03:31:29;8.40;;;2.20;;
28003;SDS011;15330;51.234;6.754;2024-03-23T03:33:54;12.55;;;2.50;;
28003;SDS011;15330;51.234;6.754;2024-03-23T03:36:20;11.18;;;2.17;;
28003;SDS011;15330;51.234;6.754;2024-03-23T03:38:46;13.52;;;2.65;;
28003;SDS011;15330;51.234;6.754;2024-03-23T03:41:11;11.65;;;2.40;;
28003;SDS011;15330;51.234;6.754;2024-03-23T03:43:36;7.75;;;1.90;;
28003;SDS011;15330;51.234;6.754;2024-03-23T03:46:03;14.45;;;2.85;;
28003;SDS011;15330;51.234;6.754;2024-03-23T03:48:28;15.80;;;2.53;;
28003;SDS011;15330;51.234;6.754;2024-03-23T03:50:54;8.85;;;2.42;;
28003;SDS011;15330;51.234;6.754;2024-03-23T03:53:19;12.43;;;2.67;;
28003;SDS011;15330;51.234;6.754;2024-03-23T03:55:45;13.32;;;3.33;;
28003;SDS011;15330;51.234;6.754;2024-03-23T03:58:10;12.93;;;2.92;;
28003;SDS011;15330;51.234;6.754;2024-03-23T04:00:36;12.25;;;2.83;;
28003;SDS011;15330;51.234;6.754;2024-03-23T04:03:01;17.63;;;3.55;;
28003;SDS011;15330;51.234;6.754;2024-03-23T04:05:27;12.40;;;2.72;;
28003;SDS011;15330;51.234;6.754;2024-03-23T04:07:52;15.57;;;2.60;;
28003;SDS011;15330;51.234;6.754;2024-03-23T04:10:19;16.10;;;2.90;;
28003;SDS011;15330;51.234;6.754;2024-03-23T04:12:44;11.15;;;2.75;;
28003;SDS011;15330;51.234;6.754;2024-03-23T04:15:10;10.10;;;2.72;;
28003;SDS011;15330;51.234;6.754;2024-03-23T04:17:36;13.40;;;3.00;;
28003;SDS011;15330;51.234;6.754;2024-03-23T04:20:01;12.73;;;3.00;;
28003;SDS011;15330;51.234;6.754;2024-03-23T04:22:30;12.88;;;2.83;;
28003;SDS011;15330;51.234;6.754;2024-03-23T04:24:56;10.00;;;3.13;;
28003;SDS011;15330;51.234;6.754;2024-03-23T04:27:22;14.00;;;3.00;;
28003;SDS011;15330;51.234;6.754;2024-03-23T04:29:51;13.02;;;2.55;;
28003;SDS011;15330;51.234;6.754;2024-03-23T04:32:18;17.75;;;3.20;;
28003;SDS011;15330;51.234;6.754;2024-03-23T04:34:43;14.00;;;3.22;;
28003;SDS011;15330;51.234;6.754;2024-03-23T04:37:09;8.25;;;2.50;;
28003;SDS011;15330;51.234;6.754;2024-03-23T04:39:38;15.23;;;3.15;;
28003;SDS011;15330;51.234;6.754;2024-03-23T04:42:04;16.88;;;3.70;;
28003;SDS011;15330;51.234;6.754;2024-03-23T04:44:30;11.15;;;3.38;;
28003;SDS011;15330;51.234;6.754;2024-03-23T04:46:56;12.15;;;4.38;;
28003;SDS011;15330;51.234;6.754;2024-03-23T04:49:25;14.30;;;3.72;;
28003;SDS011;15330;51.234;6.754;2024-03-23T04:51:51;17.00;;;3.95;;
28003;SDS011;15330;51.234;6.754;2024-03-23T04:54:16;14.35;;;3.88;;
28003;SDS011;15330;51.234;6.754;2024-03-23T04:56:41;15.35;;;3.90;;
28003;SDS011;15330;51.234;6.754;2024-03-23T04:59:07;20.08;;;4.35;;
28003;SDS011;15330;51.234;6.754;2024-03-23T05:01:32;16.08;;;3.78;;
28003;SDS011;15330;51.234;6.754;2024-03-23T05:03:58;15.55;;;4.25;;
28003;SDS011;15330;51.234;6.754;2024-03-23T05:06:23;9.43;;;3.40;;
28003;SDS011;15330;51.234;6.754;2024-03-23T05:08:50;14.27;;;4.25;;
28003;SDS011;15330;51.234;6.754;2024-03-23T05:11:16;14.90;;;4.28;;
28003;SDS011;15330;51.234;6.754;2024-03-23T05:13:41;13.90;;;3.58;;
28003;SDS011;15330;51.234;6.754;2024-03-23T05:16:07;15.95;;;4.30;;
28003;SDS011;15330;51.234;6.754;2024-03-23T05:18:33;14.43;;;4.05;;
28003;SDS011;15330;51.234;6.754;2024-03-23T05:20:59;15.45;;;3.63;;
28003;SDS011;15330;51.234;6.754;2024-03-23T05:23:24;18.08;;;4.68;;
28003;SDS011;15330;51.234;6.754;2024-03-23T05:25:50;16.23;;;3.75;;
28003;SDS011;15330;51.234;6.754;2024-03-23T05:28:17;18.35;;;4.47;;
28003;SDS011;15330;51.234;6.754;2024-03-23T05:30:42;15.95;;;4.63;;
28003;SDS011;15330;51.234;6.754;2024-03-23T05:33:08;18.02;;;4.70;;
28003;SDS011;15330;51.234;6.754;2024-03-23T05:35:33;15.55;;;4.80;;
28003;SDS011;15330;51.234;6.754;2024-03-23T05:37:59;14.35;;;3.90;;
28003;SDS011;15330;51.234;6.754;2024-03-23T05:40:25;17.52;;;5.13;;
28003;SDS011;15330;51.234;6.754;2024-03-23T05:42:51;21.13;;;4.57;;
28003;SDS011;15330;51.234;6.754;2024-03-23T05:45:21;16.63;;;4.40;;
28003;SDS011;15330;51.234;6.754;2024-03-23T05:47:47;17.02;;;5.07;;
28003;SDS011;15330;51.234;6.754;2024-03-23T05:50:13;17.75;;;5.10;;
28003;SDS011;15330;51.234;6.754;2024-03-23T05:52:39;21.90;;;5.97;;
28003;SDS011;15330;51.234;6.754;2024-03-23T05:55:05;19.58;;;5.50;;
28003;SDS011;15330;51.234;6.754;2024-03-23T05:57:31;17.73;;;5.45;;
28003;SDS011;15330;51.234;6.754;2024-03-23T05:59:56;16.92;;;5.88;;
28003;SDS011;15330;51.234;6.754;2024-03-23T06:02:22;18.45;;;5.43;;
28003;SDS011;15330;51.234;6.754;2024-03-23T06:04:49;23.08;;;6.18;;
28003;SDS011;15330;51.234;6.754;2024-03-23T06:07:14;23.58;;;6.20;;
28003;SDS011;15330;51.234;6.754;2024-03-23T06:09:42;19.88;;;6.30;;
28003;SDS011;15330;51.234;6.754;2024-03-23T06:12:08;17.52;;;5.38;;
28003;SDS011;15330;51.234;6.754;2024-03-23T06:14:34;17.58;;;5.88;;
28003;SDS011;15330;51.234;6.754;2024-03-23T06:16:59;20.88;;;6.05;;
28003;SDS011;15330;51.234;6.754;2024-03-23T06:19:25;21.92;;;6.72;;
28003;SDS011;15330;51.234;6.754;2024-03-23T06:21:52;25.90;;;6.85;;
28003;SDS011;15330;51.234;6.754;2024-03-23T06:24:24;21.52;;;5.95;;
28003;SDS011;15330;51.234;6.754;2024-03-23T06:26:49;12.63;;;5.50;;
28003;SDS011;15330;51.234;6.754;2024-03-23T06:29:15;17.45;;;4.82;;
28003;SDS011;15330;51.234;6.754;2024-03-23T06:31:40;15.40;;;5.93;;
28003;SDS011;15330;51.234;6.754;2024-03-23T06:34:06;16.05;;;5.57;;
28003;SDS011;15330;51.234;6.754;2024-03-23T06:36:31;18.30;;;5.93;;
28003;SDS011;15330;51.234;6.754;2024-03-23T06:38:56;19.30;;;6.72;;
28003;SDS011;15330;51.234;6.754;2024-03-23T06:41:22;18.90;;;5.97;;
28003;SDS011;15330;51.234;6.754;2024-03-23T06:43:48;15.70;;;5.18;;
28003;SDS011;15330;51.234;6.754;2024-03-23T06:46:13;23.90;;;6.45;;
28003;SDS011;15330;51.234;6.754;2024-03-23T06:48:39;17.65;;;6.10;;
28003;SDS011;15330;51.234;6.754;2024-03-23T06:51:04;22.20;;;6.53;;
28003;SDS011;15330;51.234;6.754;2024-03-23T06:53:29;22.20;;;5.72;;
28003;SDS011;15330;51.234;6.754;2024-03-23T06:55:55;20.65;;;5.95;;
28003;SDS011;15330;51.234;6.754;2024-03-23T06:58:21;14.88;;;6.20;;
28003;SDS011;15330;51.234;6.754;2024-03-23T07:00:47;16.60;;;5.95;;
28003;SDS011;15330;51.234;6.754;2024-03-23T07:03:14;16.23;;;5.47;;
28003;SDS011;15330;51.234;6.754;2024-03-23T07:05:39;19.20;;;6.05;;
28003;SDS011;15330;51.234;6.754;2024-03-23T07:08:05;16.08;;;6.13;;
28003;SDS011;15330;51.234;6.754;2024-03-23T07:10:31;16.90;;;6.70;;
28003;SDS011;15330;51.234;6.754;2024-03-23T07:12:56;13.55;;;6.07;;
28003;SDS011;15330;51.234;6.754;2024-03-23T07:15:22;14.80;;;5.78;;
28003;SDS011;15330;51.234;6.754;2024-03-23T07:17:47;16.27;;;5.82;;
28003;SDS011;15330;51.234;6.754;2024-03-23T07:20:13;18.67;;;6.60;;
28003;SDS011;15330;51.234;6.754;2024-03-23T07:22:38;13.93;;;5.30;;
28003;SDS011;15330;51.234;6.754;2024-03-23T07:25:04;13.90;;;5.70;;
28003;SDS011;15330;51.234;6.754;2024-03-23T07:27:31;16.48;;;5.60;;
28003;SDS011;15330;51.234;6.754;2024-03-23T07:29:57;15.65;;;5.55;;
28003;SDS011;15330;51.234;6.754;2024-03-23T07:32:22;16.02;;;5.97;;
28003;SDS011;15330;51.234;6.754;2024-03-23T07:34:48;12.93;;;5.25;;
28003;SDS011;15330;51.234;6.754;2024-03-23T07:37:13;14.25;;;5.63;;
28003;SDS011;15330;51.234;6.754;2024-03-23T07:39:39;19.30;;;5.78;;
28003;SDS011;15330;51.234;6.754;2024-03-23T07:42:05;13.93;;;4.88;;
28003;SDS011;15330;51.234;6.754;2024-03-23T07:44:30;12.73;;;4.53;;
28003;SDS011;15330;51.234;6.754;2024-03-23T07:46:56;14.80;;;5.28;;
28003;SDS011;15330;51.234;6.754;2024-03-23T07:49:21;17.38;;;5.53;;
28003;SDS011;15330;51.234;6.754;2024-03-23T07:51:47;17.33;;;4.97;;
28003;SDS011;15330;51.234;6.754;2024-03-23T07:54:12;12.20;;;4.80;;
28003;SDS011;15330;51.234;6.754;2024-03-23T07:56:38;15.07;;;4.68;;
28003;SDS011;15330;51.234;6.754;2024-03-23T07:59:03;13.95;;;5.43;;
28003;SDS011;15330;51.234;6.754;2024-03-23T08:01:29;16.48;;;5.55;;
28003;SDS011;15330;51.234;6.754;2024-03-23T08:03:54;11.98;;;5.15;;
28003;SDS011;15330;51.234;6.754;2024-03-23T08:06:20;12.68;;;5.43;;
28003;SDS011;15330;51.234;6.754;2024-03-23T08:08:48;10.73;;;4.85;;
28003;SDS011;15330;51.234;6.754;2024-03-23T08:11:24;18.65;;;5.22;;
28003;SDS011;15330;51.234;6.754;2024-03-23T08:13:53;12.20;;;5.07;;
28003;SDS011;15330;51.234;6.754;2024-03-23T08:16:19;15.40;;;5.53;;
28003;SDS011;15330;51.234;6.754;2024-03-23T08:18:44;13.57;;;5.32;;
28003;SDS011;15330;51.234;6.754;2024-03-23T08:21:10;19.42;;;5.32;;
28003;SDS011;15330;51.234;6.754;2024-03-23T08:23:36;10.57;;;4.43;;
28003;SDS011;15330;51.234;6.754;2024-03-23T08:26:09;10.68;;;4.32;;
28003;SDS011;15330;51.234;6.754;2024-03-23T08:31:04;14.02;;;4.30;;
28003;SDS011;15330;51.234;6.754;2024-03-23T08:33:31;12.10;;;4.10;;
28003;SDS011;15330;51.234;6.754;2024-03-23T08:36:00;14.82;;;4.28;;
28003;SDS011;15330;51.234;6.754;2024-03-23T08:38:27;17.92;;;4.38;;
28003;SDS011;15330;51.234;6.754;2024-03-23T08:41:03;13.63;;;3.83;;
28003;SDS011;15330;51.234;6.754;2024-03-23T08:43:28;14.48;;;4.03;;
28003;SDS011;15330;51.234;6.754;2024-03-23T08:46:03;14.38;;;3.53;;
28003;SDS011;15330;51.234;6.754;2024-03-23T08:48:29;13.88;;;3.75;;
28003;SDS011;15330;51.234;6.754;2024-03-23T08:51:07;12.27;;;3.60;;
28003;SDS011;15330;51.234;6.754;2024-03-23T08:53:34;12.20;;;3.58;;
28003;SDS011;15330;51.234;6.754;2024-03-23T08:56:00;12.30;;;3.40;;
28003;SDS011;15330;51.234;6.754;2024-03-23T08:58:29;12.93;;;3.97;;
28003;SDS011;15330;51.234;6.754;2024-03-23T09:00:56;10.85;;;2.72;;
28003;SDS011;15330;51.234;6.754;2024-03-23T09:03:25;18.63;;;4.20;;
28003;SDS011;15330;51.234;6.754;2024-03-23T09:05:51;12.43;;;4.32;;
28003;SDS011;15330;51.234;6.754;2024-03-23T09:08:17;15.13;;;4.22;;
28003;SDS011;15330;51.234;6.754;2024-03-23T09:10:43;11.15;;;3.60;;
28003;SDS011;15330;51.234;6.754;2024-03-23T09:13:08;16.27;;;4.00;;
28003;SDS011;15330;51.234;6.754;2024-03-23T09:15:34;12.80;;;3.75;;
28003;SDS011;15330;51.234;6.754;2024-03-23T09:18:00;10.55;;;3.17;;
28003;SDS011;15330;51.234;6.754;2024-03-23T09:20:27;11.25;;;3.60;;
28003;SDS011;15330;51.234;6.754;2024-03-23T09:22:52;16.70;;;3.53;;
28003;SDS011;15330;51.234;6.754;2024-03-23T09:25:18;10.82;;;3.80;;
28003;SDS011;15330;51.234;6.754;2024-03-23T09:27:45;11.13;;;4.07;;
28003;SDS011;15330;51.234;6.754;2024-03-23T09:30:11;14.15;;;4.20;;
28003;SDS011;15330;51.234;6.754;2024-03-23T09:32:37;10.77;;;4.40;;
28003;SDS011;15330;51.234;6.754;2024-03-23T09:35:03;10.18;;;5.03;;
28003;SDS011;15330;51.234;6.754;2024-03-23T09:37:29;11.60;;;4.05;;
28003;SDS011;15330;51.234;6.754;2024-03-23T09:39:55;10.23;;;3.70;;
28003;SDS011;15330;51.234;6.754;2024-03-23T09:42:20;10.38;;;3.63;;
28003;SDS011;15330;51.234;6.754;2024-03-23T09:44:45;12.88;;;3.65;;
28003;SDS011;15330;51.234;6.754;2024-03-23T09:47:11;10.02;;;3.95;;
28003;SDS011;15330;51.234;6.754;2024-03-23T09:49:37;11.43;;;4.18;;
28003;SDS011;15330;51.234;6.754;2024-03-23T09:52:03;11.50;;;4.30;;
28003;SDS011;15330;51.234;6.754;2024-03-23T09:54:29;8.70;;;3.97;;
28003;SDS011;15330;51.234;6.754;2024-03-23T09:56:55;13.23;;;4.50;;
28003;SDS011;15330;51.234;6.754;2024-03-23T09:59:20;11.90;;;4.28;;
28003;SDS011;15330;51.234;6.754;2024-03-23T10:01:46;10.40;;;3.83;;
28003;SDS011;15330;51.234;6.754;2024-03-23T10:04:23;9.70;;;3.85;;
28003;SDS011;15330;51.234;6.754;2024-03-23T10:09:39;9.40;;;3.42;;
28003;SDS011;15330;51.234;6.754;2024-03-23T10:12:11;11.95;;;3.10;;
28003;SDS011;15330;51.234;6.754;2024-03-23T10:14:42;8.73;;;3.20;;
28003;SDS011;15330;51.234;6.754;2024-03-23T10:17:12;11.27;;;3.55;;
28003;SDS011;15330;51.234;6.754;2024-03-23T10:19:46;8.95;;;3.47;;
28003;SDS011;15330;51.234;6.754;2024-03-23T10:22:16;11.48;;;3.50;;
28003;SDS011;15330;51.234;6.754;2024-03-23T10:24:44;10.82;;;3.10;;
28003;SDS011;15330;51.234;6.754;2024-03-23T10:27:10;7.55;;;1.90;;
28003;SDS011;15330;51.234;6.754;2024-03-23T10:29:44;7.68;;;1.80;;
28003;SDS011;15330;51.234;6.754;2024-03-23T10:32:10;9.52;;;2.92;;
28003;SDS011;15330;51.234;6.754;2024-03-23T10:34:37;5.82;;;1.85;;
28003;SDS011;15330;51.234;6.754;2024-03-23T10:37:03;9.75;;;1.75;;
28003;SDS011;15330;51.234;6.754;2024-03-23T10:39:32;6.15;;;1.98;;
28003;SDS011;15330;51.234;6.754;2024-03-23T10:42:05;5.20;;;1.58;;
28003;SDS011;15330;51.234;6.754;2024-03-23T10:44:32;6.43;;;2.13;;
28003;SDS011;15330;51.234;6.754;2024-03-23T10:46:59;5.38;;;1.55;;
28003;SDS011;15330;51.234;6.754;2024-03-23T10:49:29;9.50;;;2.70;;
28003;SDS011;15330;51.234;6.754;2024-03-23T10:51:59;6.47;;;1.20;;
28003;SDS011;15330;51.234;6.754;2024-03-23T10:54:25;4.63;;;1.20;;
28003;SDS011;15330;51.234;6.754;2024-03-23T10:56:53;4.35;;;1.05;;
28003;SDS011;15330;51.234;6.754;2024-03-23T10:59:39;3.00;;;0.85;;
28003;SDS011;15330;51.234;6.754;2024-03-23T11:02:05;2.70;;;0.93;;
28003;SDS011;15330;51.234;6.754;2024-03-23T11:04:36;3.95;;;1.05;;
28003;SDS011;15330;51.234;6.754;2024-03-23T11:09:48;6.18;;;1.08;;
28003;SDS011;15330;51.234;6.754;2024-03-23T11:17:19;2.83;;;1.08;;
28003;SDS011;15330;51.234;6.754;2024-03-23T11:32:44;5.95;;;1.58;;
28003;SDS011;15330;51.234;6.754;2024-03-23T11:35:24;4.18;;;1.50;;
28003;SDS011;15330;51.234;6.754;2024-03-23T11:38:09;5.00;;;1.90;;
28003;SDS011;15330;51.234;6.754;2024-03-23T11:40:35;4.97;;;1.50;;
28003;SDS011;15330;51.234;6.754;2024-03-23T11:43:03;4.45;;;1.40;;
28003;SDS011;15330;51.234;6.754;2024-03-23T11:45:36;3.47;;;1.63;;
28003;SDS011;15330;51.234;6.754;2024-03-23T11:48:04;6.35;;;2.47;;
28003;SDS011;15330;51.234;6.754;2024-03-23T11:50:36;5.07;;;1.77;;
28003;SDS011;15330;51.234;6.754;2024-03-23T11:55:46;3.10;;;0.82;;
28003;SDS011;15330;51.234;6.754;2024-03-23T11:58:16;4.93;;;0.70;;
28003;SDS011;15330;51.234;6.754;2024-03-23T12:00:42;0.93;;;0.50;;
28003;SDS011;15330;51.234;6.754;2024-03-23T12:03:15;0.73;;;0.50;;
28003;SDS011;15330;51.234;6.754;2024-03-23T12:05:41;0.80;;;0.30;;
28003;SDS011;15330;51.234;6.754;2024-03-23T12:08:16;2.42;;;0.70;;
28003;SDS011;15330;51.234;6.754;2024-03-23T12:10:44;3.72;;;0.68;;
28003;SDS011;15330;51.234;6.754;2024-03-23T12:13:17;2.45;;;1.00;;
28003;SDS011;15330;51.234;6.754;2024-03-23T12:15:50;2.42;;;0.60;;
28003;SDS011;15330;51.234;6.754;2024-03-23T12:18:16;2.60;;;0.70;;
28003;SDS011;15330;51.234;6.754;2024-03-23T12:20:43;6.32;;;1.73;;
28003;SDS011;15330;51.234;6.754;2024-03-23T12:23:17;5.80;;;1.27;;
28003;SDS011;15330;51.234;6.754;2024-03-23T12:25:43;8.02;;;2.03;;
28003;SDS011;15330;51.234;6.754;2024-03-23T12:28:08;4.47;;;2.20;;
28003;SDS011;15330;51.234;6.754;2024-03-23T12:30:38;10.38;;;2.63;;
28003;SDS011;15330;51.234;6.754;2024-03-23T12:33:05;4.65;;;2.10;;
28003;SDS011;15330;51.234;6.754;2024-03-23T12:35:30;3.08;;;1.90;;
28003;SDS011;15330;51.234;6.754;2024-03-23T12:37:56;7.22;;;1.83;;
28003;SDS011;15330;51.234;6.754;2024-03-23T12:40:22;5.95;;;1.90;;
28003;SDS011;15330;51.234;6.754;2024-03-23T12:42:47;6.45;;;1.40;;
28003;SDS011;15330;51.234;6.754;2024-03-23T12:45:12;2.67;;;1.30;;
28003;SDS011;15330;51.234;6.754;2024-03-23T12:47:38;4.30;;;1.50;;
28003;SDS011;15330;51.234;6.754;2024-03-23T12:50:03;5.50;;;1.42;;
28003;SDS011;15330;51.234;6.754;2024-03-23T12:52:30;4.90;;;1.40;;
28003;SDS011;15330;51.234;6.754;2024-03-23T12:54:56;4.50;;;1.20;;
28003;SDS011;15330;51.234;6.754;2024-03-23T12:57:25;1.95;;;1.20;;
28003;SDS011;15330;51.234;6.754;2024-03-23T12:59:53;2.58;;;1.20;;
28003;SDS011;15330;51.234;6.754;2024-03-23T13:02:22;4.45;;;1.75;;
28003;SDS011;15330;51.234;6.754;2024-03-23T13:04:54;5.03;;;1.55;;
28003;SDS011;15330;51.234;6.754;2024-03-23T13:07:20;4.38;;;1.35;;
28003;SDS011;15330;51.234;6.754;2024-03-23T13:09:46;4.45;;;1.40;;
28003;SDS011;15330;51.234;6.754;2024-03-23T13:12:14;2.45;;;1.10;;
28003;SDS011;15330;51.234;6.754;2024-03-23T13:14:40;2.33;;;0.90;;
28003;SDS011;15330;51.234;6.754;2024-03-23T13:17:06;2.05;;;0.90;;
28003;SDS011;15330;51.234;6.754;2024-03-23T13:19:32;4.68;;;0.93;;
28003;SDS011;15330;51.234;6.754;2024-03-23T13:21:58;4.85;;;0.70;;
28003;SDS011;15330;51.234;6.754;2024-03-23T13:24:25;4.40;;;0.93;;
28003;SDS011;15330;51.234;6.754;2024-03-23T13:26:51;3.50;;;1.40;;
28003;SDS011;15330;51.234;6.754;2024-03-23T13:29:17;5.32;;;1.25;;
28003;SDS011;15330;51.234;6.754;2024-03-23T13:31:44;6.57;;;1.80;;
28003;SDS011;15330;51.234;6.754;2024-03-23T13:34:09;1.42;;;0.82;;
28003;SDS011;15330;51.234;6.754;2024-03-23T13:36:34;3.75;;;1.00;;
28003;SDS011;15330;51.234;6.754;2024-03-23T13:39:01;2.72;;;0.95;;
28003;SDS011;15330;51.234;6.754;2024-03-23T13:41:31;3.50;;;0.82;;
28003;SDS011;15330;51.234;6.754;2024-03-23T13:43:56;3.85;;;1.40;;
28003;SDS011;15330;51.234;6.754;2024-03-23T13:46:22;3.00;;;0.98;;
28003;SDS011;15330;51.234;6.754;2024-03-23T13:48:47;2.92;;;1.10;;
28003;SDS011;15330;51.234;6.754;2024-03-23T13:51:12;4.03;;;1.33;;
28003;SDS011;15330;51.234;6.754;2024-03-23T13:53:38;5.57;;;1.60;;
28003;SDS011;15330;51.234;6.754;2024-03-23T13:56:03;6.28;;;2.22;;
28003;SDS011;15330;51.234;6.754;2024-03-23T13:58:29;4.85;;;1.45;;
28003;SDS011;15330;51.234;6.754;2024-03-23T14:00:56;3.90;;;1.50;;
28003;SDS011;15330;51.234;6.754;2024-03-23T14:03:23;4.82;;;1.88;;
28003;SDS011;15330;51.234;6.754;2024-03-23T14:05:48;3.50;;;1.40;;
28003;SDS011;15330;51.234;6.754;2024-03-23T14:08:14;8.48;;;1.63;;
28003;SDS011;15330;51.234;6.754;2024-03-23T14:10:40;6.47;;;2.40;;
28003;SDS011;15330;51.234;6.754;2024-03-23T14:13:06;5.72;;;1.83;;
28003;SDS011;15330;51.234;6.754;2024-03-23T14:15:32;9.93;;;2.97;;
28003;SDS011;15330;51.234;6.754;2024-03-23T14:17:58;5.25;;;1.98;;
28003;SDS011;15330;51.234;6.754;2024-03-23T14:20:24;9.32;;;1.98;;
28003;SDS011;15330;51.234;6.754;2024-03-23T14:22:50;4.25;;;1.70;;
28003;SDS011;15330;51.234;6.754;2024-03-23T14:25:16;8.15;;;1.98;;
28003;SDS011;15330;51.234;6.754;2024-03-23T14:27:43;3.22;;;1.50;;
28003;SDS011;15330;51.234;6.754;2024-03-23T14:30:09;6.47;;;2.20;;
28003;SDS011;15330;51.234;6.754;2024-03-23T14:32:35;4.88;;;1.70;;
28003;SDS011;15330;51.234;6.754;2024-03-23T14:35:02;1.50;;;0.70;;
28003;SDS011;15330;51.234;6.754;2024-03-23T14:37:28;3.83;;;1.20;;
28003;SDS011;15330;51.234;6.754;2024-03-23T14:39:55;2.20;;;0.80;;
28003;SDS011;15330;51.234;6.754;2024-03-23T14:42:21;1.95;;;0.70;;
28003;SDS011;15330;51.234;6.754;2024-03-23T14:44:46;1.85;;;0.77;;
28003;SDS011;15330;51.234;6.754;2024-03-23T14:47:12;5.80;;;0.85;;
28003;SDS011;15330;51.234;6.754;2024-03-23T14:49:37;2.83;;;1.33;;
28003;SDS011;15330;51.234;6.754;2024-03-23T14:52:03;4.78;;;1.27;;
28003;SDS011;15330;51.234;6.754;2024-03-23T14:54:28;4.82;;;1.30;;
28003;SDS011;15330;51.234;6.754;2024-03-23T14:56:54;2.30;;;1.13;;
28003;SDS011;15330;51.234;6.754;2024-03-23T14:59:21;4.78;;;1.40;;
28003;SDS011;15330;51.234;6.754;2024-03-23T15:01:46;2.85;;;1.30;;
28003;SDS011;15330;51.234;6.754;2024-03-23T15:04:12;4.15;;;1.38;;
28003;SDS011;15330;51.234;6.754;2024-03-23T15:06:37;3.10;;;1.35;;
28003;SDS011;15330;51.234;6.754;2024-03-23T15:09:03;7.47;;;2.10;;
28003;SDS011;15330;51.234;6.754;2024-03-23T15:11:32;2.67;;;1.50;;
28003;SDS011;15330;51.234;6.754;2024-03-23T15:13:58;3.60;;;1.52;;
28003;SDS011;15330;51.234;6.754;2024-03-23T15:16:23;3.92;;;1.40;;
28003;SDS011;15330;51.234;6.754;2024-03-23T15:18:49;4.30;;;1.77;;
28003;SDS011;15330;51.234;6.754;2024-03-23T15:21:14;3.95;;;1.60;;
28003;SDS011;15330;51.234;6.754;2024-03-23T15:23:45;5.55;;;2.17;;
28003;SDS011;15330;51.234;6.754;2024-03-23T15:26:10;8.02;;;1.85;;
28003;SDS011;15330;51.234;6.754;2024-03-23T15:28:36;3.97;;;1.85;;
28003;SDS011;15330;51.234;6.754;2024-03-23T15:31:27;5.32;;;1.60;;
28003;SDS011;15330;51.234;6.754;2024-03-23T15:33:52;4.38;;;1.60;;
28003;SDS011;15330;51.234;6.754;2024-03-23T15:36:18;3.00;;;1.20;;
28003;SDS011;15330;51.234;6.754;2024-03-23T15:38:43;5.13;;;1.42;;
28003;SDS011;15330;51.234;6.754;2024-03-23T15:41:10;3.88;;;1.58;;
28003;SDS011;15330;51.234;6.754;2024-03-23T15:43:35;2.33;;;1.15;;
28003;SDS011;15330;51.234;6.754;2024-03-23T15:46:02;5.47;;;1.40;;
28003;SDS011;15330;51.234;6.754;2024-03-23T15:48:29;4.47;;;1.77;;
28003;SDS011;15330;51.234;6.754;2024-03-23T15:50:57;4.15;;;1.60;;
28003;SDS011;15330;51.234;6.754;2024-03-23T15:53:22;4.80;;;1.63;;
28003;SDS011;15330;51.234;6.754;2024-03-23T15:58:21;3.83;;;1.50;;
28003;SDS011;15330;51.234;6.754;2024-03-23T16:03:29;4.50;;;1.35;;